createdAt,value
2018-10-01T00:00:45.485Z,11.02
2018-10-01T00:03:15.576Z,11.25
2018-10-01T00:05:45.366Z,11.52
2018-10-01T00:08:15.386Z,11.65
2018-10-01T00:10:45.143Z,11.80
2018-10-01T00:13:14.853Z,11.74
2018-10-01T00:15:44.756Z,11.67
2018-10-01T00:18:20.217Z,11.51
2018-10-01T00:20:54.986Z,11.45
2018-10-01T00:23:24.764Z,11.37
2018-10-01T00:25:54.500Z,11.27
2018-10-01T00:28:26.424Z,11.20
2018-10-01T00:30:56.239Z,11.14
2018-10-01T00:33:26.007Z,11.07
2018-10-01T00:35:55.844Z,11.12
2018-10-01T00:38:27.097Z,11.14
2018-10-01T00:40:56.728Z,11.18
2018-10-01T00:43:26.406Z,11.26
2018-10-01T00:45:56.079Z,11.26
2018-10-01T00:48:26.341Z,11.22
2018-10-01T00:50:56.122Z,11.17
2018-10-01T00:53:28.281Z,11.17
2018-10-01T00:55:58.123Z,11.28
2018-10-01T00:58:28.390Z,11.32
2018-10-01T01:00:58.273Z,11.30
2018-10-01T01:03:28.352Z,11.27
2018-10-01T01:05:59.144Z,11.18
2018-10-01T01:08:30.757Z,11.13
2018-10-01T01:11:00.941Z,11.11
2018-10-01T01:13:30.867Z,11.11
2018-10-01T01:16:00.626Z,11.09
2018-10-01T01:18:30.447Z,11.08
2018-10-01T01:21:00.186Z,11.05
2018-10-01T01:23:29.910Z,11.03
2018-10-01T01:25:59.576Z,11.05
2018-10-01T01:28:29.606Z,11.02
2018-10-01T01:30:59.385Z,10.99
2018-10-01T01:33:29.187Z,10.98
2018-10-01T01:35:59.174Z,10.96
2018-10-01T01:38:30.389Z,10.98
2018-10-01T01:41:00.112Z,11.05
2018-10-01T01:43:29.893Z,11.24
2018-10-01T01:45:59.623Z,11.49
2018-10-01T01:48:29.930Z,11.64
2018-10-01T01:51:02.816Z,11.72
2018-10-01T01:53:33.824Z,11.84
2018-10-01T01:56:03.677Z,11.88
2018-10-01T01:58:33.661Z,11.88
2018-10-01T02:01:03.679Z,11.84
2018-10-01T02:03:33.568Z,11.93
2018-10-01T02:06:03.381Z,11.93
2018-10-01T02:08:34.618Z,11.91
2018-10-01T02:11:04.444Z,11.91
2018-10-01T02:13:34.215Z,11.87
2018-10-01T02:16:04.324Z,11.90
2018-10-01T02:18:34.541Z,11.84
2018-10-01T02:21:04.346Z,11.85
2018-10-01T02:23:38.070Z,11.80
2018-10-01T02:26:08.607Z,11.85
2018-10-01T02:28:38.499Z,11.82
2018-10-01T02:31:09.233Z,11.79
2018-10-01T02:33:40.362Z,11.70
2018-10-01T02:36:10.536Z,11.80
2018-10-01T02:38:40.594Z,11.84
2018-10-01T02:41:10.983Z,11.84
2018-10-01T02:43:46.064Z,11.80
2018-10-01T02:46:17.838Z,11.78
2018-10-01T02:48:48.974Z,11.73
2018-10-01T02:51:18.807Z,11.71
2018-10-01T02:53:53.764Z,11.72
2018-10-01T02:56:23.638Z,11.70
2018-10-01T02:58:53.583Z,11.66
2018-10-01T03:01:26.522Z,11.66
2018-10-01T03:03:57.757Z,11.79
2018-10-01T03:06:29.678Z,11.85
2018-10-01T03:08:59.463Z,11.93
2018-10-01T03:11:29.803Z,11.94
2018-10-01T03:13:59.543Z,11.92
2018-10-01T03:16:30.505Z,11.99
2018-10-01T03:19:01.944Z,12.07
2018-10-01T03:21:31.684Z,12.05
2018-10-01T03:24:01.630Z,11.99
2018-10-01T03:26:31.502Z,11.99
2018-10-01T03:29:01.328Z,11.94
2018-10-01T03:31:31.144Z,11.91
2018-10-01T03:34:02.617Z,11.88
2018-10-01T03:36:36.702Z,11.89
2018-10-01T03:39:09.346Z,11.86
2018-10-01T03:41:39.872Z,11.84
2018-10-01T03:44:09.642Z,11.79
2018-10-01T03:46:39.343Z,11.78
2018-10-01T03:49:09.261Z,11.69
2018-10-01T03:51:39.408Z,11.65
2018-10-01T03:54:09.571Z,11.60
2018-10-01T03:56:39.405Z,11.62
2018-10-01T03:59:12.835Z,11.61
2018-10-01T04:01:42.709Z,11.58
2018-10-01T04:04:17.932Z,11.55
2018-10-01T04:06:47.729Z,11.55
2018-10-01T04:09:17.470Z,11.58
2018-10-01T04:11:47.599Z,11.58
2018-10-01T04:14:17.454Z,11.62
2018-10-01T04:16:47.273Z,11.56
2018-10-01T04:19:17.060Z,11.49
2018-10-01T04:21:46.836Z,11.52
2018-10-01T04:24:17.061Z,11.52
2018-10-01T04:26:48.257Z,11.51
2018-10-01T04:29:18.098Z,11.51
2018-10-01T04:31:47.905Z,11.54
2018-10-01T04:34:17.843Z,11.50
2018-10-01T04:36:47.700Z,11.44
2018-10-01T04:39:18.476Z,11.41
2018-10-01T04:41:48.404Z,11.36
2018-10-01T04:44:18.323Z,11.36
2018-10-01T04:46:48.137Z,11.30
2018-10-01T04:49:24.364Z,11.33
2018-10-01T04:51:54.122Z,11.29
2018-10-01T04:54:23.881Z,11.27
2018-10-01T04:56:55.865Z,11.37
2018-10-01T04:59:27.228Z,11.38
2018-10-01T05:01:56.981Z,11.36
2018-10-01T05:04:26.858Z,11.32
2018-10-01T05:06:56.630Z,11.27
2018-10-01T05:09:26.686Z,11.26
2018-10-01T05:11:56.481Z,11.25
2018-10-01T05:14:26.564Z,11.22
2018-10-01T05:16:56.379Z,11.21
2018-10-01T05:19:26.395Z,11.18
2018-10-01T05:21:56.281Z,11.19
2018-10-01T05:24:28.765Z,11.07
2018-10-01T05:26:58.643Z,11.04
2018-10-01T05:29:28.591Z,10.97
2018-10-01T05:31:58.509Z,11.03
2018-10-01T05:34:28.430Z,11.00
2018-10-01T05:36:58.383Z,10.95
2018-10-01T05:39:32.733Z,10.85
2018-10-01T05:42:05.433Z,10.88
2018-10-01T05:44:36.283Z,10.79
2018-10-01T05:47:06.489Z,10.73
2018-10-01T05:49:36.329Z,10.70
2018-10-01T05:52:06.213Z,10.71
2018-10-01T05:54:39.816Z,10.77
2018-10-01T05:57:09.592Z,10.70
2018-10-01T05:59:44.268Z,10.61
2018-10-01T06:02:17.800Z,10.64
2018-10-01T06:04:48.430Z,10.58
2018-10-01T06:07:19.273Z,10.54
2018-10-01T06:09:49.294Z,10.56
2018-10-01T06:12:19.605Z,10.60
2018-10-01T06:14:49.826Z,10.58
2018-10-01T06:17:20.248Z,10.53
2018-10-01T06:19:50.069Z,10.57
2018-10-01T06:22:20.554Z,10.56
2018-10-01T06:24:50.270Z,10.56
2018-10-01T06:27:20.127Z,10.56
2018-10-01T06:29:49.954Z,10.57
2018-10-01T06:32:19.877Z,10.54
2018-10-01T06:34:49.772Z,10.54
2018-10-01T06:37:20.041Z,10.58
2018-10-01T06:39:49.780Z,10.56
2018-10-01T06:42:19.568Z,10.59
2018-10-01T06:44:49.331Z,10.67
2018-10-01T06:47:19.016Z,10.63
2018-10-01T06:49:48.758Z,10.57
2018-10-01T06:52:20.943Z,10.61
2018-10-01T06:54:50.694Z,10.60
2018-10-01T06:57:20.618Z,10.67
2018-10-01T06:59:50.580Z,10.69
2018-10-01T07:02:20.428Z,10.67
2018-10-01T07:04:50.447Z,10.72
2018-10-01T07:07:20.864Z,10.65
2018-10-01T07:09:50.659Z,10.67
2018-10-01T07:12:20.448Z,10.68
2018-10-01T07:14:50.177Z,10.79
2018-10-01T07:17:19.924Z,10.78
2018-10-01T07:19:49.695Z,10.77
2018-10-01T07:22:20.176Z,10.77
2018-10-01T07:24:49.923Z,10.82
2018-10-01T07:27:19.735Z,10.73
2018-10-01T07:29:49.625Z,10.81
2018-10-01T07:32:21.984Z,10.88
2018-10-01T07:34:51.743Z,10.91
2018-10-01T07:37:21.621Z,11.10
2018-10-01T07:39:51.455Z,11.15
2018-10-01T07:42:22.870Z,11.15
2018-10-01T07:44:52.807Z,11.22
2018-10-01T07:47:22.559Z,11.20
2018-10-01T07:49:52.220Z,11.32
2018-10-01T07:52:21.924Z,11.22
2018-10-01T07:54:51.704Z,11.33
2018-10-01T07:57:21.444Z,11.26
2018-10-01T07:59:51.296Z,11.49
2018-10-01T08:02:21.001Z,11.44
2018-10-01T08:04:51.073Z,11.46
2018-10-01T08:07:21.278Z,11.55
2018-10-01T08:09:51.097Z,11.56
2018-10-01T08:12:24.179Z,11.67
2018-10-01T08:14:54.099Z,11.57
2018-10-01T08:17:24.274Z,11.53
2018-10-01T08:19:54.308Z,11.42
2018-10-01T08:22:24.276Z,11.52
2018-10-01T08:24:54.349Z,11.42
2018-10-01T08:27:24.597Z,11.49
2018-10-01T08:29:54.507Z,11.49
2018-10-01T08:32:24.329Z,11.43
2018-10-01T08:34:54.050Z,11.44
2018-10-01T08:37:23.942Z,11.35
2018-10-01T08:39:53.723Z,11.30
2018-10-01T08:42:23.605Z,11.28
2018-10-01T08:44:53.327Z,11.16
2018-10-01T08:47:23.418Z,11.17
2018-10-01T08:49:58.750Z,11.18
2018-10-01T08:52:32.516Z,11.23
2018-10-01T08:55:02.580Z,11.28
2018-10-01T08:57:33.187Z,11.39
2018-10-01T09:00:03.659Z,11.34
2018-10-01T09:02:33.738Z,11.20
2018-10-01T09:05:04.185Z,11.17
2018-10-01T09:07:34.453Z,11.26
2018-10-01T09:10:05.352Z,11.10
2018-10-01T09:12:36.226Z,11.30
2018-10-01T09:19:59.617Z,11.41
2018-10-01T09:22:29.708Z,11.29
2018-10-01T09:24:59.582Z,11.25
2018-10-01T09:27:29.848Z,11.27
2018-10-01T09:29:59.620Z,11.41
2018-10-01T09:32:30.472Z,11.42
2018-10-01T09:35:00.628Z,11.37
2018-10-01T09:37:30.582Z,11.33
2018-10-01T09:40:02.362Z,11.44
2018-10-01T09:42:32.495Z,11.51
2018-10-01T09:45:02.449Z,11.59
2018-10-01T09:47:32.373Z,11.62
2018-10-01T09:50:02.264Z,11.66
2018-10-01T09:52:32.396Z,11.69
2018-10-01T09:55:03.746Z,11.79
2018-10-01T09:57:34.625Z,11.97
2018-10-01T10:00:05.450Z,12.00
2018-10-01T10:02:35.663Z,12.01
2018-10-01T10:05:06.946Z,11.93
2018-10-01T10:07:38.273Z,11.86
2018-10-01T10:10:12.435Z,12.00
2018-10-01T10:12:43.402Z,11.91
2018-10-01T10:15:13.612Z,12.04
2018-10-01T10:17:43.645Z,12.04
2018-10-01T10:20:43.970Z,12.09
2018-10-01T10:23:14.168Z,12.09
2018-10-01T10:25:44.436Z,12.05
2018-10-01T10:28:15.548Z,12.16
2018-10-01T10:30:45.912Z,12.21
2018-10-01T10:33:16.466Z,12.19
2018-10-01T10:35:46.773Z,12.15
2018-10-01T10:38:17.056Z,12.10
2018-10-01T10:40:47.023Z,12.06
2018-10-01T10:43:19.880Z,12.07
2018-10-01T10:45:50.372Z,12.23
2018-10-01T10:48:21.072Z,12.18
2018-10-01T10:50:51.365Z,12.13
2018-10-01T10:53:21.833Z,12.31
2018-10-01T10:55:52.029Z,12.43
2018-10-01T10:58:21.828Z,12.49
2018-10-01T11:00:51.784Z,12.63
2018-10-01T11:03:21.842Z,12.65
2018-10-01T11:05:52.120Z,12.80
2018-10-01T11:08:23.336Z,12.78
2018-10-01T11:10:56.971Z,12.82
2018-10-01T11:13:26.999Z,12.72
2018-10-01T11:15:58.941Z,12.76
2018-10-01T11:18:28.903Z,12.71
2018-10-01T11:20:59.165Z,12.71
2018-10-01T11:23:29.059Z,12.84
2018-10-01T11:26:00.453Z,12.83
2018-10-01T11:28:32.300Z,13.03
2018-10-01T11:31:02.482Z,12.89
2018-10-01T11:33:32.859Z,13.12
2018-10-01T11:36:03.444Z,13.25
2018-10-01T11:38:33.780Z,13.25
2018-10-01T11:41:03.638Z,13.05
2018-10-01T11:43:34.423Z,13.14
2018-10-01T11:46:05.128Z,13.24
2018-10-01T11:48:36.047Z,13.36
2018-10-01T11:51:06.742Z,13.32
2018-10-01T11:53:37.775Z,13.34
2018-10-01T11:56:08.507Z,13.29
2018-10-01T11:58:38.668Z,13.36
2018-10-01T12:01:10.447Z,13.65
2018-10-01T12:04:16.088Z,13.93
2018-10-01T12:06:51.704Z,13.85
2018-10-01T12:09:23.147Z,13.65
2018-10-01T12:11:54.000Z,13.49
2018-10-01T12:14:26.104Z,13.38
2018-10-01T12:17:00.157Z,13.28
2018-10-01T12:19:31.520Z,13.28
2018-10-01T12:22:01.831Z,13.36
2018-10-01T12:24:32.032Z,13.63
2018-10-01T12:27:02.510Z,13.73
2018-10-01T12:29:32.576Z,13.96
2018-10-01T12:32:13.573Z,14.18
2018-10-01T12:34:43.542Z,14.08
2018-10-01T12:37:13.546Z,13.79
2018-10-01T12:39:43.481Z,13.64
2018-10-01T12:42:13.667Z,13.57
2018-10-01T12:44:43.478Z,13.64
2018-10-01T12:47:13.711Z,13.73
2018-10-01T12:49:43.697Z,14.02
2018-10-01T12:52:14.061Z,14.16
2018-10-01T12:54:44.217Z,14.71
2018-10-01T12:57:14.761Z,14.99
2018-10-01T12:59:46.061Z,14.72
2018-10-01T13:02:16.239Z,14.59
2018-10-01T13:04:47.920Z,14.22
2018-10-01T13:07:21.819Z,13.99
2018-10-01T13:09:53.058Z,13.77
2018-10-01T13:12:25.162Z,13.91
2018-10-01T13:14:57.041Z,14.00
2018-10-01T13:17:40.231Z,13.99
2018-10-01T13:22:39.210Z,14.36
2018-10-01T13:25:11.123Z,14.44
2018-10-01T13:27:40.891Z,14.59
2018-10-01T13:30:10.937Z,14.38
2018-10-01T13:32:42.888Z,14.31
2018-10-01T13:35:15.201Z,14.28
2018-10-01T13:37:46.874Z,14.12
2018-10-01T13:40:20.109Z,14.11
2018-10-01T13:42:50.117Z,13.99
2018-10-01T13:45:20.510Z,13.69
2018-10-01T13:50:31.020Z,13.26
2018-10-01T13:53:01.587Z,12.84
2018-10-01T13:55:31.784Z,12.24
2018-10-01T13:58:04.548Z,11.97
2018-10-01T14:00:34.408Z,11.68
2018-10-01T14:03:05.833Z,11.36
2018-10-01T14:05:35.960Z,11.37
2018-10-01T14:08:06.130Z,11.38
2018-10-01T14:10:36.832Z,11.37
2018-10-01T14:13:09.877Z,11.55
2018-10-01T14:15:41.674Z,11.77
2018-10-01T14:18:13.697Z,11.67
2018-10-01T14:20:45.457Z,11.87
2018-10-01T14:23:16.887Z,13.16
2018-10-01T14:25:48.362Z,14.84
2018-10-01T14:28:22.960Z,16.11
2018-10-01T14:30:56.883Z,16.87
2018-10-01T14:33:29.270Z,17.20
2018-10-01T14:36:00.516Z,17.72
2018-10-01T14:38:31.850Z,19.16
2018-10-01T14:41:02.334Z,19.91
2018-10-01T14:43:34.212Z,20.26
2018-10-01T14:46:06.952Z,21.79
2018-10-01T14:51:19.222Z,22.86
2018-10-01T14:53:49.551Z,24.02
2018-10-01T14:59:06.020Z,22.87
2018-10-01T15:01:38.067Z,21.63
2018-10-01T15:04:09.818Z,20.62
2018-10-01T15:06:40.322Z,19.39
2018-10-01T15:09:13.486Z,20.88
2018-10-01T15:11:48.961Z,20.69
2018-10-01T15:14:19.471Z,20.14
2018-10-01T15:16:51.581Z,18.49
2018-10-01T15:19:23.546Z,17.01
2018-10-01T15:21:53.639Z,15.50
2018-10-01T15:24:23.995Z,14.59
2018-10-01T15:26:54.309Z,14.38
2018-10-01T15:29:24.564Z,14.08
2018-10-01T15:31:57.956Z,13.95
2018-10-01T15:34:29.626Z,13.72
2018-10-01T15:37:03.256Z,13.59
2018-10-01T15:39:40.556Z,13.42
2018-10-01T15:42:12.899Z,13.52
2018-10-01T15:44:44.451Z,13.72
2018-10-01T15:47:15.812Z,13.76
2018-10-01T15:49:56.209Z,13.62
2018-10-01T15:52:30.646Z,13.33
2018-10-01T15:55:01.783Z,13.15
2018-10-01T15:57:34.977Z,13.12
2018-10-01T16:00:07.141Z,12.95
2018-10-01T16:02:45.364Z,12.92
2018-10-01T16:05:17.001Z,12.89
2018-10-01T16:07:47.380Z,12.75
2018-10-01T16:10:17.635Z,12.66
2018-10-01T16:12:48.685Z,12.59
2018-10-01T16:15:20.348Z,12.55
2018-10-01T16:17:50.288Z,12.37
2018-10-01T16:20:20.285Z,12.41
2018-10-01T16:22:52.759Z,12.34
2018-10-01T16:25:24.091Z,12.24
2018-10-01T16:27:58.082Z,12.07
2018-10-01T16:30:28.782Z,11.88
2018-10-01T16:32:59.176Z,11.80
2018-10-01T16:35:30.365Z,11.69
2018-10-01T16:38:00.840Z,11.62
2018-10-01T16:40:31.482Z,11.50
2018-10-01T16:43:02.178Z,11.48
2018-10-01T16:45:32.535Z,11.52
2018-10-01T16:48:04.398Z,11.52
2018-10-01T16:50:40.699Z,11.43
2018-10-01T16:53:29.826Z,11.27
2018-10-01T16:56:16.577Z,11.13
2018-10-01T17:01:41.472Z,10.91
2018-10-01T17:04:12.452Z,10.80
2018-10-01T17:06:44.371Z,10.72
2018-10-01T17:09:15.287Z,10.58
2018-10-01T17:11:47.049Z,10.44
2018-10-01T17:14:18.137Z,10.25
2018-10-01T17:16:50.712Z,10.10
2018-10-01T17:19:21.896Z,9.92
2018-10-01T17:21:53.825Z,9.87
2018-10-01T17:24:28.543Z,9.82
2018-10-01T17:27:00.987Z,9.77
2018-10-01T17:29:34.052Z,9.83
2018-10-01T17:32:06.949Z,10.04
2018-10-01T17:34:38.790Z,10.21
2018-10-01T17:37:12.849Z,10.26
2018-10-01T17:39:52.601Z,10.01
2018-10-01T17:42:37.291Z,9.81
2018-10-01T17:45:22.605Z,9.55
2018-10-01T17:48:04.343Z,9.35
2018-10-01T17:50:44.704Z,9.18
2018-10-01T17:53:21.822Z,9.04
2018-10-01T17:56:31.574Z,9.03
2018-10-01T17:59:59.203Z,8.99
2018-10-01T18:06:16.777Z,8.96
2018-10-01T18:09:00.193Z,8.98
2018-10-01T18:14:34.705Z,9.11
2018-10-01T18:17:25.152Z,9.17
2018-10-01T18:20:01.200Z,9.22
2018-10-01T18:22:48.913Z,9.23
2018-10-01T18:25:27.870Z,9.35
2018-10-01T18:28:25.990Z,9.33
2018-10-01T18:31:09.923Z,9.27
2018-10-01T18:33:54.017Z,9.30
2018-10-01T18:36:31.758Z,9.32
2018-10-01T18:39:24.736Z,9.35
2018-10-01T18:42:33.749Z,9.35
2018-10-01T18:45:14.474Z,9.24
2018-10-01T18:47:59.606Z,9.15
2018-10-01T18:50:39.057Z,9.16
2018-10-01T18:53:16.757Z,9.19
2018-10-01T18:56:09.718Z,9.29
2018-10-01T18:58:51.087Z,9.25
2018-10-01T19:01:47.332Z,9.20
2018-10-01T19:08:59.149Z,9.03
2018-10-01T19:11:55.939Z,8.98
2018-10-01T19:14:42.583Z,8.85
2018-10-01T19:24:32.648Z,8.84
2018-10-01T19:27:25.590Z,8.85
2018-10-01T19:30:03.859Z,8.83
2018-10-01T19:32:57.264Z,8.78
2018-10-01T19:36:01.296Z,8.70
2018-10-01T19:39:10.472Z,8.67
2018-10-01T19:42:01.319Z,8.69
2018-10-01T19:50:35.476Z,8.76
2018-10-01T19:53:08.957Z,8.77
2018-10-01T19:55:41.324Z,8.77
2018-10-01T19:58:16.971Z,8.83
2018-10-01T20:00:49.048Z,8.85
2018-10-01T20:03:25.282Z,8.91
2018-10-01T20:08:51.004Z,8.91
2018-10-01T20:11:28.399Z,8.90
2018-10-01T20:14:00.289Z,8.93
2018-10-01T20:16:37.703Z,8.95
2018-10-01T20:19:16.000Z,8.92
2018-10-01T20:21:48.684Z,8.88
2018-10-01T20:24:23.036Z,8.86
2018-10-01T20:26:55.026Z,8.76
2018-10-01T20:29:32.021Z,8.67
2018-10-01T20:32:04.691Z,8.69
2018-10-01T20:34:35.958Z,8.64
2018-10-01T20:37:19.522Z,8.53
2018-10-01T20:39:55.578Z,8.44
2018-10-01T20:42:30.147Z,8.42
2018-10-01T20:45:12.014Z,8.48
2018-10-01T20:50:23.085Z,8.57
2018-10-01T20:52:55.679Z,8.59
2018-10-01T20:55:26.965Z,8.62
2018-10-01T20:57:57.965Z,8.68
2018-10-01T21:00:29.722Z,8.68
2018-10-01T21:03:01.301Z,8.67
2018-10-01T21:05:32.726Z,8.74
2018-10-01T21:08:05.635Z,8.78
2018-10-01T21:10:36.399Z,8.76
2018-10-01T21:13:07.704Z,8.83
2018-10-01T21:18:12.292Z,8.87
2018-10-01T21:20:43.043Z,8.89
2018-10-01T21:23:18.674Z,8.90
2018-10-01T21:25:52.050Z,8.91
2018-10-01T21:28:30.833Z,8.95
2018-10-01T21:31:03.982Z,8.87
2018-10-01T21:33:35.753Z,8.81
2018-10-01T21:38:48.374Z,8.91
2018-10-01T21:41:22.509Z,8.85
2018-10-01T21:43:55.725Z,8.78
2018-10-01T21:46:33.762Z,8.75
2018-10-01T21:49:06.164Z,8.72
2018-10-01T21:51:38.563Z,8.69
2018-10-01T21:54:11.427Z,8.72
2018-10-01T21:56:48.104Z,8.83
2018-10-01T21:59:19.896Z,8.67
2018-10-01T22:04:29.913Z,8.59
2018-10-01T22:07:01.651Z,8.51
2018-10-01T22:09:33.187Z,8.47
2018-10-01T22:12:03.452Z,8.42
2018-10-01T22:14:41.973Z,8.38
2018-10-01T22:17:13.985Z,8.38
2018-10-01T22:19:46.841Z,8.39
2018-10-01T22:22:18.824Z,8.40
2018-10-01T22:24:53.484Z,8.48
2018-10-01T22:27:24.188Z,8.51
2018-10-01T22:29:54.458Z,8.54
2018-10-01T22:32:24.993Z,8.51
2018-10-01T22:34:55.136Z,8.69
2018-10-01T22:37:25.756Z,8.63
2018-10-01T22:39:55.769Z,8.60
2018-10-01T22:42:25.661Z,8.62
2018-10-01T22:44:55.777Z,8.72
2018-10-01T22:47:29.897Z,8.67
2018-10-01T22:50:00.368Z,8.67
2018-10-01T22:52:30.710Z,8.65
2018-10-01T22:55:01.132Z,8.71
2018-10-01T22:57:32.624Z,8.66
2018-10-01T23:00:02.938Z,8.64
2018-10-01T23:02:33.072Z,8.61
2018-10-01T23:05:03.235Z,8.58
2018-10-01T23:07:37.186Z,8.57
2018-10-01T23:10:08.805Z,8.51
2018-10-01T23:12:38.937Z,8.45
2018-10-01T23:15:09.289Z,8.44
2018-10-01T23:17:39.529Z,8.42
2018-10-01T23:20:10.645Z,8.43
2018-10-01T23:22:40.475Z,8.37
2018-10-01T23:25:10.446Z,8.34
2018-10-01T23:27:40.176Z,8.48
2018-10-01T23:30:10.106Z,8.42
2018-10-01T23:32:41.467Z,8.40
2018-10-01T23:35:11.608Z,8.36
2018-10-01T23:37:42.298Z,8.23
2018-10-01T23:40:13.650Z,8.17
2018-10-01T23:42:43.960Z,8.12
2018-10-01T23:45:13.747Z,8.03
2018-10-01T23:47:43.654Z,8.00
2018-10-01T23:50:13.478Z,8.02
2018-10-01T23:52:43.488Z,7.88
2018-10-01T23:55:15.098Z,7.87
2018-10-01T23:57:46.382Z,7.85
